createdAt,value
2017-07-14T00:01:56.247Z,99.90
2017-07-14T00:04:23.823Z,99.90
2017-07-14T00:06:51.363Z,99.90
2017-07-14T00:09:18.951Z,99.90
2017-07-14T00:11:46.523Z,99.90
2017-07-14T00:14:14.183Z,99.90
2017-07-14T00:16:41.738Z,99.90
2017-07-14T00:19:09.286Z,99.90
2017-07-14T00:21:36.855Z,99.90
2017-07-14T00:24:04.418Z,99.90
2017-07-14T00:26:31.951Z,99.90
2017-07-14T00:28:59.492Z,99.90
2017-07-14T00:31:27.099Z,99.90
2017-07-14T00:33:54.645Z,99.90
2017-07-14T00:36:22.311Z,99.90
2017-07-14T00:38:49.886Z,99.90
2017-07-14T00:41:17.443Z,99.90
2017-07-14T00:43:45.010Z,99.90
2017-07-14T00:46:12.567Z,99.90
2017-07-14T00:48:40.125Z,99.90
2017-07-14T00:51:07.658Z,99.90
2017-07-14T00:53:35.251Z,99.90
2017-07-14T00:56:02.812Z,99.90
2017-07-14T00:58:30.370Z,99.90
2017-07-14T01:00:57.927Z,99.90
2017-07-14T01:03:25.491Z,99.90
2017-07-14T01:05:53.055Z,99.90
2017-07-14T01:08:20.622Z,99.90
2017-07-14T01:10:48.158Z,99.90
2017-07-14T01:13:15.694Z,99.90
2017-07-14T01:15:43.295Z,99.90
2017-07-14T01:18:10.839Z,99.90
2017-07-14T01:20:38.414Z,99.90
2017-07-14T01:23:05.969Z,99.90
2017-07-14T01:25:33.534Z,99.90
2017-07-14T01:28:01.119Z,99.90
2017-07-14T01:30:28.675Z,99.90
2017-07-14T01:32:56.232Z,99.90
2017-07-14T01:35:23.815Z,99.90
2017-07-14T01:37:51.417Z,99.90
2017-07-14T01:40:18.982Z,99.90
2017-07-14T01:42:46.546Z,99.90
2017-07-14T01:45:14.106Z,99.90
2017-07-14T01:47:41.717Z,99.90
2017-07-14T01:50:10.116Z,99.90
2017-07-14T01:52:38.475Z,99.90
2017-07-14T01:55:06.135Z,99.90
2017-07-14T01:57:33.699Z,99.90
2017-07-14T02:00:01.335Z,99.90
2017-07-14T02:02:28.979Z,99.90
2017-07-14T02:04:56.560Z,99.90
2017-07-14T02:07:24.166Z,99.90
2017-07-14T02:09:51.720Z,99.90
2017-07-14T02:12:20.109Z,99.90
2017-07-14T02:14:48.461Z,99.90
2017-07-14T02:17:16.031Z,99.90
2017-07-14T02:19:43.567Z,99.90
2017-07-14T02:22:11.141Z,99.90
2017-07-14T02:24:38.703Z,99.90
2017-07-14T02:27:06.267Z,99.90
2017-07-14T02:29:33.832Z,99.90
2017-07-14T02:32:01.490Z,99.90
2017-07-14T02:34:29.075Z,99.90
2017-07-14T02:36:57.415Z,99.90
2017-07-14T02:39:25.012Z,99.90
2017-07-14T02:41:53.356Z,99.90
2017-07-14T02:44:20.953Z,99.90
2017-07-14T02:46:49.308Z,99.90
2017-07-14T02:49:16.906Z,99.90
2017-07-14T02:51:45.282Z,99.90
2017-07-14T02:54:13.611Z,99.90
2017-07-14T02:56:41.193Z,99.90
2017-07-14T02:59:08.784Z,99.90
2017-07-14T03:01:37.199Z,99.90
2017-07-14T03:04:05.029Z,99.90
2017-07-14T03:06:33.424Z,99.90
2017-07-14T03:09:01.075Z,99.90
2017-07-14T03:11:29.427Z,99.90
2017-07-14T03:13:57.016Z,99.90
2017-07-14T03:16:25.359Z,99.90
2017-07-14T03:18:52.987Z,99.90
2017-07-14T03:21:20.536Z,99.90
2017-07-14T03:23:48.123Z,99.90
2017-07-14T03:26:15.716Z,99.90
2017-07-14T03:28:43.407Z,99.90
2017-07-14T03:31:11.750Z,99.90
2017-07-14T03:33:39.331Z,99.90
2017-07-14T03:36:06.891Z,99.90
2017-07-14T03:38:34.522Z,99.90
2017-07-14T03:41:02.099Z,99.90
2017-07-14T03:43:29.703Z,99.90
2017-07-14T03:45:57.363Z,99.90
2017-07-14T03:48:24.944Z,99.90
2017-07-14T03:50:52.554Z,99.90
2017-07-14T03:53:20.098Z,99.90
2017-07-14T03:55:47.737Z,99.90
2017-07-14T03:58:15.363Z,99.90
2017-07-14T04:00:43.726Z,99.90
2017-07-14T04:03:11.315Z,99.90
2017-07-14T04:05:38.903Z,99.90
2017-07-14T04:08:06.504Z,99.90
2017-07-14T04:10:34.044Z,99.90
2017-07-14T04:13:01.631Z,99.90
2017-07-14T04:15:29.311Z,99.90
2017-07-14T04:17:57.630Z,99.90
2017-07-14T04:20:25.248Z,99.90
2017-07-14T04:22:53.736Z,99.90
2017-07-14T04:25:22.095Z,99.90
2017-07-14T04:27:49.732Z,99.90
2017-07-14T04:30:17.314Z,99.90
2017-07-14T04:32:44.875Z,99.90
2017-07-14T04:35:12.519Z,99.90
2017-07-14T04:37:40.103Z,99.90
2017-07-14T04:40:07.673Z,99.90
2017-07-14T04:42:36.023Z,99.90
2017-07-14T04:45:03.624Z,99.90
2017-07-14T04:47:32.009Z,99.90
2017-07-14T04:50:00.359Z,99.90
2017-07-14T04:52:27.944Z,99.90
2017-07-14T04:54:56.325Z,99.90
2017-07-14T04:57:24.653Z,99.90
2017-07-14T04:59:52.226Z,99.90
2017-07-14T05:02:19.826Z,99.90
2017-07-14T05:04:48.175Z,99.90
2017-07-14T05:07:15.733Z,99.90
2017-07-14T05:09:43.327Z,99.90
2017-07-14T05:12:11.649Z,99.90
2017-07-14T05:14:39.211Z,99.90
2017-07-14T05:17:06.761Z,99.90
2017-07-14T05:19:34.446Z,99.90
2017-07-14T05:22:01.986Z,99.90
2017-07-14T05:24:29.560Z,99.90
2017-07-14T05:26:57.098Z,99.90
2017-07-14T05:29:24.632Z,99.90
2017-07-14T05:31:53.052Z,99.90
2017-07-14T05:34:20.596Z,99.90
2017-07-14T05:36:48.183Z,99.90
2017-07-14T05:39:15.718Z,99.90
2017-07-14T05:41:43.315Z,99.90
2017-07-14T05:44:10.852Z,99.90
2017-07-14T05:46:38.394Z,99.90
2017-07-14T05:49:05.922Z,99.90
2017-07-14T05:51:33.546Z,99.90
2017-07-14T05:54:01.085Z,99.90
2017-07-14T05:56:28.666Z,99.90
2017-07-14T05:58:56.235Z,99.90
2017-07-14T06:01:23.768Z,99.90
2017-07-14T06:03:51.355Z,99.90
2017-07-14T06:06:18.914Z,99.90
2017-07-14T06:08:46.446Z,99.90
2017-07-14T06:11:14.035Z,99.90
2017-07-14T06:13:41.565Z,99.90
2017-07-14T06:16:09.155Z,99.90
2017-07-14T06:18:36.710Z,99.90
2017-07-14T06:21:04.247Z,99.90
2017-07-14T06:23:31.785Z,99.90
2017-07-14T06:26:00.090Z,99.90
2017-07-14T06:28:27.627Z,99.90
2017-07-14T06:30:55.927Z,99.90
2017-07-14T06:33:23.520Z,99.90
2017-07-14T06:35:51.143Z,99.90
2017-07-14T06:38:18.679Z,99.90
2017-07-14T06:40:47.126Z,99.90
2017-07-14T06:43:14.770Z,99.90
2017-07-14T06:45:42.342Z,99.90
2017-07-14T06:48:09.897Z,99.10
2017-07-14T06:50:37.570Z,99.90
2017-07-14T06:53:05.131Z,99.90
2017-07-14T06:55:32.662Z,99.90
2017-07-14T06:58:00.249Z,99.00
2017-07-14T07:00:27.810Z,99.70
2017-07-14T07:02:55.358Z,94.90
2017-07-14T07:05:22.882Z,95.30
2017-07-14T07:07:51.215Z,96.20
2017-07-14T07:10:18.748Z,96.10
2017-07-14T07:12:46.279Z,99.90
2017-07-14T07:15:14.615Z,99.90
2017-07-14T07:17:42.278Z,99.90
2017-07-14T07:20:09.842Z,99.90
2017-07-14T07:22:37.369Z,99.90
2017-07-14T07:25:04.950Z,99.90
2017-07-14T07:27:32.515Z,99.90
2017-07-14T07:30:00.054Z,99.90
2017-07-14T07:32:27.591Z,99.90
2017-07-14T07:34:55.895Z,99.20
2017-07-14T07:37:23.476Z,99.20
2017-07-14T07:39:51.037Z,97.00
2017-07-14T07:42:18.611Z,96.60
2017-07-14T07:44:46.162Z,93.90
2017-07-14T07:47:19.458Z,92.00
2017-07-14T07:52:40.795Z,94.10
2017-07-14T07:55:08.368Z,92.60
2017-07-14T07:57:35.926Z,85.60
2017-07-14T08:00:03.475Z,93.90
2017-07-14T08:02:36.935Z,91.90
2017-07-14T08:05:04.469Z,83.20
2017-07-14T08:07:32.914Z,89.40
2017-07-14T08:10:00.543Z,89.60
2017-07-14T08:12:28.140Z,91.20
2017-07-14T08:14:55.703Z,85.00
2017-07-14T08:17:23.363Z,86.40
2017-07-14T08:19:50.907Z,94.00
2017-07-14T08:22:18.470Z,94.60
2017-07-14T08:24:46.011Z,89.90
2017-07-14T08:27:13.613Z,90.50
2017-07-14T08:29:41.167Z,85.50
2017-07-14T08:32:08.830Z,81.20
2017-07-14T08:34:36.391Z,82.10
2017-07-14T08:37:03.952Z,91.70
2017-07-14T08:39:31.514Z,89.60
2017-07-14T08:41:59.171Z,90.40
2017-07-14T08:44:26.734Z,93.50
2017-07-14T08:46:54.395Z,90.70
2017-07-14T08:49:21.956Z,85.10
2017-07-14T08:51:49.494Z,92.10
2017-07-14T08:54:17.031Z,91.10
2017-07-14T08:56:45.363Z,86.30
2017-07-14T08:59:12.927Z,86.70
2017-07-14T09:01:40.469Z,82.50
2017-07-14T09:04:08.007Z,85.20
2017-07-14T09:06:35.570Z,93.90
2017-07-14T09:09:03.163Z,93.60
2017-07-14T09:11:30.730Z,94.00
2017-07-14T09:13:58.382Z,90.70
2017-07-14T09:16:25.946Z,95.80
2017-07-14T09:18:53.607Z,96.80
2017-07-14T09:21:21.167Z,91.70
2017-07-14T09:23:48.741Z,96.10
2017-07-14T09:26:16.279Z,90.20
2017-07-14T09:28:43.856Z,92.70
2017-07-14T09:31:11.409Z,89.00
2017-07-14T09:33:39.078Z,80.40
2017-07-14T09:36:06.642Z,88.40
2017-07-14T09:38:34.303Z,84.10
2017-07-14T09:41:01.863Z,78.80
2017-07-14T09:43:29.526Z,88.10
2017-07-14T09:45:57.176Z,89.10
2017-07-14T09:48:24.743Z,81.90
2017-07-14T09:50:52.315Z,94.30
2017-07-14T09:53:19.978Z,86.10
2017-07-14T09:55:47.624Z,83.70
2017-07-14T09:58:15.187Z,84.50
2017-07-14T10:00:42.719Z,87.10
2017-07-14T10:03:10.334Z,85.00
2017-07-14T10:05:37.984Z,87.10
2017-07-14T10:08:05.637Z,87.00
2017-07-14T10:10:33.206Z,94.10
2017-07-14T10:13:00.739Z,87.40
2017-07-14T10:15:28.326Z,86.20
2017-07-14T10:17:55.890Z,84.20
2017-07-14T10:20:23.451Z,86.40
2017-07-14T10:22:51.003Z,94.20
2017-07-14T10:25:18.568Z,82.60
2017-07-14T10:27:46.930Z,81.00
2017-07-14T10:30:14.507Z,85.70
2017-07-14T10:32:42.067Z,76.80
2017-07-14T10:35:09.731Z,90.90
2017-07-14T10:37:37.300Z,86.40
2017-07-14T10:40:04.963Z,88.30
2017-07-14T10:42:32.519Z,91.70
2017-07-14T10:45:00.186Z,78.90
2017-07-14T10:47:27.746Z,76.00
2017-07-14T10:49:55.274Z,91.30
2017-07-14T10:52:22.870Z,91.00
2017-07-14T10:54:50.431Z,87.80
2017-07-14T10:57:17.982Z,87.50
2017-07-14T10:59:45.520Z,84.90
2017-07-14T11:02:13.053Z,86.80
2017-07-14T11:04:41.363Z,76.90
2017-07-14T11:07:08.947Z,76.90
2017-07-14T11:09:36.709Z,90.20
2017-07-14T11:12:04.275Z,90.60
2017-07-14T11:14:31.816Z,76.00
2017-07-14T11:16:59.409Z,88.30
2017-07-14T11:19:27.054Z,86.60
2017-07-14T11:21:54.587Z,93.50
2017-07-14T11:24:22.122Z,80.90
2017-07-14T11:26:50.455Z,81.10
2017-07-14T11:29:18.097Z,80.80
2017-07-14T11:31:45.684Z,86.80
2017-07-14T11:34:13.350Z,88.50
2017-07-14T11:36:40.903Z,86.00
2017-07-14T11:39:08.575Z,91.00
2017-07-14T11:41:36.121Z,92.60
2017-07-14T11:44:03.691Z,82.50
2017-07-14T11:46:31.231Z,88.70
2017-07-14T11:48:58.839Z,78.30
2017-07-14T11:51:26.483Z,85.30
2017-07-14T11:53:54.040Z,88.00
2017-07-14T11:56:21.600Z,80.40
2017-07-14T11:58:49.135Z,88.70
2017-07-14T12:01:16.727Z,85.80
2017-07-14T12:03:44.279Z,90.20
2017-07-14T12:06:11.842Z,90.00
2017-07-14T12:08:39.372Z,87.30
2017-07-14T12:11:06.906Z,86.70
2017-07-14T12:13:35.235Z,92.10
2017-07-14T12:16:02.795Z,92.10
2017-07-14T12:18:30.367Z,88.20
2017-07-14T12:20:57.926Z,91.10
2017-07-14T12:23:25.473Z,84.70
2017-07-14T12:25:53.047Z,90.40
2017-07-14T12:28:20.597Z,81.80
2017-07-14T12:30:48.160Z,82.10
2017-07-14T12:33:15.740Z,80.40
2017-07-14T12:35:43.291Z,75.80
2017-07-14T12:38:10.846Z,77.00
2017-07-14T12:40:38.385Z,86.30
2017-07-14T12:45:59.789Z,82.80
2017-07-14T12:48:28.093Z,82.30
2017-07-14T12:50:55.651Z,82.50
2017-07-14T12:53:23.247Z,83.10
2017-07-14T12:55:50.808Z,82.00
2017-07-14T12:58:18.348Z,85.00
2017-07-14T13:00:45.909Z,81.80
2017-07-14T13:03:13.490Z,79.10
2017-07-14T13:05:41.063Z,79.10
2017-07-14T13:08:08.599Z,69.10
2017-07-14T13:10:36.158Z,73.20
2017-07-14T13:13:03.734Z,78.90
2017-07-14T13:15:31.399Z,85.00
2017-07-14T13:17:58.934Z,77.40
2017-07-14T13:20:26.527Z,79.40
2017-07-14T13:22:54.083Z,78.50
2017-07-14T13:25:21.644Z,72.10
2017-07-14T13:27:49.200Z,71.90
2017-07-14T13:30:16.759Z,80.10
2017-07-14T13:32:44.323Z,76.60
2017-07-14T13:35:11.870Z,75.10
2017-07-14T13:37:39.408Z,73.20
2017-07-14T13:40:06.999Z,79.00
2017-07-14T13:42:34.538Z,77.00
2017-07-14T13:45:02.074Z,78.90
2017-07-14T13:47:30.379Z,73.60
2017-07-14T13:49:57.958Z,72.70
2017-07-14T13:52:25.526Z,79.20
2017-07-14T13:54:53.087Z,74.10
2017-07-14T13:57:20.622Z,76.00
2017-07-14T13:59:48.199Z,75.10
2017-07-14T14:02:15.807Z,74.60
2017-07-14T14:04:44.155Z,74.00
2017-07-14T14:07:11.723Z,74.10
2017-07-14T14:09:39.261Z,80.90
2017-07-14T14:12:06.937Z,82.20
2017-07-14T14:14:34.490Z,88.30
2017-07-14T14:17:02.157Z,83.00
2017-07-14T14:19:29.687Z,77.80
2017-07-14T14:21:57.246Z,75.00
2017-07-14T14:24:24.778Z,77.70
2017-07-14T14:26:53.224Z,78.50
2017-07-14T14:29:20.766Z,78.40
2017-07-14T14:31:48.342Z,81.20
2017-07-14T14:34:15.885Z,83.90
2017-07-14T14:36:43.554Z,80.70
2017-07-14T14:39:11.127Z,75.90
2017-07-14T14:41:38.687Z,82.80
2017-07-14T14:44:06.226Z,75.40
2017-07-14T14:46:33.809Z,75.20
2017-07-14T14:49:01.368Z,76.20
2017-07-14T14:51:29.032Z,79.00
2017-07-14T14:53:56.565Z,74.30
2017-07-14T14:56:24.124Z,72.60
2017-07-14T14:58:51.674Z,76.90
2017-07-14T15:01:19.271Z,74.60
2017-07-14T15:03:46.808Z,78.00
2017-07-14T15:06:14.387Z,75.80
2017-07-14T15:08:41.922Z,80.10
2017-07-14T15:11:09.456Z,75.70
2017-07-14T15:13:37.795Z,83.80
2017-07-14T15:16:05.449Z,83.70
2017-07-14T15:18:33.020Z,78.70
2017-07-14T15:21:00.579Z,79.30
2017-07-14T15:23:28.141Z,83.20
2017-07-14T15:25:55.671Z,77.40
2017-07-14T15:28:23.264Z,80.20
2017-07-14T15:30:50.823Z,79.20
2017-07-14T15:39:04.714Z,84.00
2017-07-14T15:41:32.363Z,84.10
2017-07-14T15:43:59.899Z,83.20
2017-07-14T15:46:27.445Z,85.20
2017-07-14T15:48:55.055Z,90.10
2017-07-14T15:51:22.612Z,86.60
2017-07-14T15:53:50.142Z,88.50
2017-07-14T15:56:17.735Z,88.80
2017-07-14T15:58:45.298Z,89.30
2017-07-14T16:01:12.848Z,89.60
2017-07-14T16:03:40.424Z,90.90
2017-07-14T16:06:07.980Z,90.60
2017-07-14T16:08:35.517Z,90.40
2017-07-14T16:11:03.062Z,90.10
2017-07-14T16:13:30.606Z,91.60
2017-07-14T16:15:58.914Z,93.00
2017-07-14T16:18:26.498Z,93.00
2017-07-14T16:20:54.044Z,94.20
2017-07-14T16:23:21.633Z,94.60
2017-07-14T16:25:49.190Z,94.00
2017-07-14T16:28:16.742Z,95.20
2017-07-14T16:30:47.965Z,93.80
2017-07-14T16:33:15.570Z,93.90
2017-07-14T16:35:43.115Z,94.70
2017-07-14T16:38:10.767Z,96.30
2017-07-14T16:40:38.340Z,96.90
2017-07-14T16:43:05.991Z,96.70
2017-07-14T16:45:33.567Z,99.10
2017-07-14T16:48:01.219Z,97.90
2017-07-14T16:50:28.787Z,99.40
2017-07-14T16:52:56.468Z,98.10
2017-07-14T16:55:24.016Z,99.20
2017-07-14T17:03:38.599Z,99.90
2017-07-14T17:06:06.139Z,99.90
2017-07-14T17:08:33.706Z,99.90
2017-07-14T17:11:01.235Z,99.90
2017-07-14T17:13:29.566Z,99.90
2017-07-14T17:15:57.124Z,99.90
2017-07-14T17:18:24.788Z,99.90
2017-07-14T17:20:52.343Z,99.90
2017-07-14T17:23:19.906Z,99.90
2017-07-14T17:25:47.445Z,99.90
2017-07-14T17:28:15.031Z,99.90
2017-07-14T17:30:42.568Z,99.90
2017-07-14T17:33:10.151Z,99.90
2017-07-14T17:35:37.693Z,99.90
2017-07-14T17:38:05.276Z,99.90
2017-07-14T17:40:32.834Z,99.90
2017-07-14T17:43:00.398Z,99.90
2017-07-14T17:45:27.954Z,99.90
2017-07-14T17:47:55.518Z,99.90
2017-07-14T17:50:23.054Z,99.90
2017-07-14T17:52:50.624Z,99.90
2017-07-14T17:55:18.199Z,99.90
2017-07-14T17:57:45.744Z,99.90
2017-07-14T18:00:13.319Z,99.90
2017-07-14T18:02:40.851Z,99.90
2017-07-14T18:05:08.382Z,99.90
2017-07-14T18:07:36.762Z,99.90
2017-07-14T18:10:05.070Z,99.90
2017-07-14T18:12:32.611Z,99.90
2017-07-14T18:15:00.914Z,99.90
2017-07-14T18:17:28.459Z,99.90
2017-07-14T18:19:56.060Z,99.90
2017-07-14T18:22:23.619Z,99.90
2017-07-14T18:24:51.183Z,99.90
2017-07-14T18:27:18.746Z,99.90
2017-07-14T18:29:46.285Z,99.90
2017-07-14T18:32:13.918Z,99.90
2017-07-14T18:34:41.523Z,99.90
2017-07-14T18:37:09.287Z,99.90
2017-07-14T18:39:36.830Z,99.90
2017-07-14T18:42:04.372Z,99.90
2017-07-14T18:44:31.976Z,99.90
2017-07-14T18:46:59.530Z,99.90
2017-07-14T18:49:27.072Z,99.90
2017-07-14T18:51:54.658Z,99.90
2017-07-14T18:54:22.219Z,99.90
2017-07-14T18:56:49.778Z,99.90
2017-07-14T18:59:17.379Z,99.90
2017-07-14T19:01:45.688Z,99.90
2017-07-14T19:04:13.284Z,99.90
2017-07-14T19:06:40.847Z,99.90
2017-07-14T19:09:08.408Z,99.90
2017-07-14T19:11:35.963Z,99.90
2017-07-14T19:14:03.618Z,99.90
2017-07-14T19:16:31.187Z,99.90
2017-07-14T19:18:58.751Z,99.90
2017-07-14T19:21:26.300Z,99.90
2017-07-14T19:23:53.969Z,99.90
2017-07-14T19:26:21.535Z,99.90
2017-07-14T19:28:49.193Z,99.90
2017-07-14T19:31:16.755Z,99.90
2017-07-14T19:33:44.318Z,99.90
2017-07-14T19:36:11.887Z,99.90
2017-07-14T19:38:39.426Z,99.90
2017-07-14T19:41:06.963Z,99.90
2017-07-14T19:43:34.559Z,99.90
2017-07-14T19:46:02.086Z,99.90
2017-07-14T19:48:29.619Z,99.90
2017-07-14T19:50:57.960Z,99.90
2017-07-14T19:53:25.499Z,99.90
2017-07-14T19:55:53.034Z,99.90
2017-07-14T19:58:21.358Z,99.90
2017-07-14T20:00:48.918Z,99.90
2017-07-14T20:03:16.482Z,99.90
2017-07-14T20:05:44.031Z,99.90
2017-07-14T20:08:11.572Z,99.90
2017-07-14T20:10:39.172Z,99.90
2017-07-14T20:13:06.712Z,99.90
2017-07-14T20:15:34.257Z,99.90
2017-07-14T20:18:01.854Z,99.90
2017-07-14T20:20:29.462Z,99.90
2017-07-14T20:22:57.811Z,99.90
2017-07-14T20:25:25.450Z,99.90
2017-07-14T20:27:53.000Z,99.90
2017-07-14T20:30:20.590Z,99.90
2017-07-14T20:32:48.183Z,99.90
2017-07-14T20:35:16.552Z,99.90
2017-07-14T20:37:44.923Z,99.90
2017-07-14T20:40:13.279Z,99.90
2017-07-14T20:42:40.839Z,99.90
2017-07-14T20:45:08.405Z,99.90
2017-07-14T20:47:35.983Z,99.90
2017-07-14T20:50:03.569Z,99.90
2017-07-14T20:52:31.957Z,99.90
2017-07-14T20:54:59.587Z,99.90
2017-07-14T20:57:27.171Z,99.90
2017-07-14T20:59:55.625Z,99.90
2017-07-14T21:02:23.207Z,99.90
2017-07-14T21:04:51.617Z,99.90
2017-07-14T21:07:19.162Z,99.90
2017-07-14T21:09:46.788Z,99.90
2017-07-14T21:12:14.435Z,99.90
2017-07-14T21:14:42.021Z,99.90
2017-07-14T21:17:09.587Z,99.90
2017-07-14T21:19:37.241Z,99.90
2017-07-14T21:22:04.861Z,99.90
2017-07-14T21:24:32.428Z,99.90
2017-07-14T21:27:00.012Z,99.90
2017-07-14T21:29:27.559Z,99.90
2017-07-14T21:31:55.151Z,99.90
2017-07-14T21:34:22.826Z,99.90
2017-07-14T21:36:51.163Z,99.90
2017-07-14T21:39:18.718Z,99.90
2017-07-14T21:41:46.282Z,99.90
2017-07-14T21:44:13.845Z,99.90
2017-07-14T21:46:41.386Z,99.90
2017-07-14T21:49:08.969Z,99.90
2017-07-14T21:51:36.627Z,99.90
2017-07-14T21:54:04.202Z,99.90
2017-07-14T21:56:31.854Z,99.90
2017-07-14T21:58:59.394Z,99.90
2017-07-14T22:01:26.961Z,99.90
2017-07-14T22:03:54.538Z,99.90
2017-07-14T22:06:22.184Z,99.90
2017-07-14T22:08:49.719Z,99.90
2017-07-14T22:11:18.139Z,99.90
2017-07-14T22:13:45.698Z,99.90
2017-07-14T22:16:13.361Z,99.90
2017-07-14T22:18:40.923Z,99.90
2017-07-14T22:21:08.587Z,99.90
2017-07-14T22:23:36.154Z,99.90
2017-07-14T22:26:03.818Z,99.90
2017-07-14T22:28:31.378Z,99.90
2017-07-14T22:30:58.938Z,99.90
2017-07-14T22:33:27.487Z,99.90
2017-07-14T22:35:55.075Z,99.90
2017-07-14T22:38:22.643Z,99.90
2017-07-14T22:40:50.303Z,99.90
2017-07-14T22:43:17.865Z,99.90
2017-07-14T22:45:45.423Z,99.90
2017-07-14T22:48:12.960Z,99.90
2017-07-14T22:50:40.550Z,99.90
2017-07-14T22:53:08.108Z,99.90
2017-07-14T22:55:35.672Z,99.90
2017-07-14T22:58:03.205Z,99.90
2017-07-14T23:00:30.798Z,99.90
2017-07-14T23:02:58.355Z,99.90
2017-07-14T23:05:25.882Z,99.90
2017-07-14T23:07:53.439Z,99.90
2017-07-14T23:10:21.031Z,99.90
2017-07-14T23:12:48.591Z,99.90
2017-07-14T23:15:16.134Z,99.90
2017-07-14T23:17:43.692Z,99.90
2017-07-14T23:20:11.269Z,99.90
2017-07-14T23:22:38.926Z,99.90
2017-07-14T23:25:06.497Z,99.90
2017-07-14T23:27:34.057Z,99.90
2017-07-14T23:30:01.586Z,99.90
2017-07-14T23:32:29.184Z,99.90
2017-07-14T23:34:56.746Z,99.90
2017-07-14T23:37:24.403Z,99.90
2017-07-14T23:39:51.971Z,99.90
2017-07-14T23:42:19.642Z,99.90
2017-07-14T23:44:47.201Z,99.90
2017-07-14T23:47:14.854Z,99.90
2017-07-14T23:49:42.382Z,99.90
2017-07-14T23:52:09.975Z,99.90
2017-07-14T23:54:37.535Z,99.90
2017-07-14T23:57:05.203Z,99.90
2017-07-14T23:59:32.759Z,99.90
